createdAt,value
2023-04-29T00:00:15.930Z,40.61
2023-04-29T00:01:14.726Z,44.93
2023-04-29T00:02:15.956Z,42.20
2023-04-29T00:03:15.972Z,47.57
2023-04-29T00:04:17.332Z,45.94
2023-04-29T00:05:15.836Z,46.34
2023-04-29T00:06:16.537Z,46.32
2023-04-29T00:07:14.879Z,46.22
2023-04-29T00:08:15.792Z,46.10
2023-04-29T00:09:16.036Z,50.28
2023-04-29T00:10:16.589Z,46.19
2023-04-29T00:11:15.490Z,46.17
2023-04-29T00:12:16.089Z,47.03
2023-04-29T00:13:15.876Z,46.23
2023-04-29T00:14:15.291Z,46.23
2023-04-29T00:15:15.285Z,46.76
2023-04-29T00:16:15.373Z,47.11
2023-04-29T00:17:14.493Z,44.90
2023-04-29T00:18:15.096Z,46.31
2023-04-29T00:19:14.922Z,46.33
2023-04-29T00:20:15.970Z,47.09
2023-04-29T00:21:15.757Z,49.44
2023-04-29T00:22:15.743Z,50.67
2023-04-29T00:23:15.677Z,49.28
2023-04-29T00:24:15.805Z,48.75
2023-04-29T00:25:15.807Z,46.44
2023-04-29T00:26:15.934Z,45.11
2023-04-29T00:27:15.837Z,45.24
2023-04-29T00:28:15.793Z,46.60
2023-04-29T00:29:15.817Z,49.69
2023-04-29T00:30:15.743Z,47.91
2023-04-29T00:31:15.940Z,44.47
2023-04-29T00:32:17.566Z,49.48
2023-04-29T00:33:15.856Z,49.83
2023-04-29T00:34:15.761Z,49.84
2023-04-29T00:35:16.189Z,47.85
2023-04-29T00:36:15.870Z,49.81
2023-04-29T00:37:16.079Z,49.76
2023-04-29T00:38:17.546Z,47.96
2023-04-29T00:39:15.853Z,49.64
2023-04-29T00:40:16.011Z,49.81
2023-04-29T00:41:15.809Z,50.35
2023-04-29T00:42:15.969Z,45.23
2023-04-29T00:43:14.309Z,49.22
2023-04-29T00:44:14.303Z,48.18
2023-04-29T00:45:14.307Z,46.33
2023-04-29T00:46:15.332Z,44.65
2023-04-29T00:47:15.301Z,49.38
2023-04-29T00:48:15.350Z,45.56
2023-04-29T00:49:15.291Z,43.94
2023-04-29T00:50:15.264Z,44.07
2023-04-29T00:51:15.245Z,50.55
2023-04-29T00:52:15.288Z,45.53
2023-04-29T00:53:15.025Z,46.78
2023-04-29T00:54:16.581Z,49.72
2023-04-29T00:55:15.271Z,52.61
2023-04-29T00:56:15.212Z,47.71
2023-04-29T00:57:15.202Z,47.42
2023-04-29T00:58:15.817Z,45.95
2023-04-29T00:59:16.087Z,47.16
2023-04-29T01:00:14.773Z,54.35
2023-04-29T01:01:14.765Z,45.04
2023-04-29T01:02:15.913Z,40.97
2023-04-29T01:03:16.069Z,44.78
2023-04-29T01:04:15.822Z,46.57
2023-04-29T01:05:16.100Z,46.88
2023-04-29T01:06:15.959Z,46.70
2023-04-29T01:07:17.577Z,47.89
2023-04-29T01:08:17.171Z,46.97
2023-04-29T01:09:16.049Z,46.92
2023-04-29T01:10:15.911Z,47.08
2023-04-29T01:11:15.286Z,47.84
2023-04-29T01:12:15.372Z,49.27
2023-04-29T01:13:16.444Z,48.80
2023-04-29T01:14:15.614Z,53.85
2023-04-29T01:15:14.819Z,46.85
2023-04-29T01:16:15.688Z,47.56
2023-04-29T01:17:15.766Z,49.03
2023-04-29T01:18:14.595Z,48.88
2023-04-29T01:19:15.673Z,46.63
2023-04-29T01:20:14.938Z,50.26
2023-04-29T01:21:15.563Z,55.15
2023-04-29T01:22:17.280Z,45.00
2023-04-29T01:23:16.934Z,52.30
2023-04-29T01:24:14.988Z,52.47
2023-04-29T01:25:15.920Z,52.91
2023-04-29T01:26:16.138Z,51.92
2023-04-29T01:27:15.657Z,48.24
2023-04-29T01:28:15.536Z,47.30
2023-04-29T01:29:16.599Z,46.18
2023-04-29T01:30:14.890Z,46.57
2023-04-29T01:31:15.888Z,46.80
2023-04-29T01:32:14.712Z,48.59
2023-04-29T01:33:15.844Z,45.26
2023-04-29T01:34:16.008Z,49.28
2023-04-29T01:35:17.987Z,47.90
2023-04-29T01:36:15.932Z,48.23
2023-04-29T01:37:16.492Z,48.23
2023-04-29T01:38:15.044Z,48.44
2023-04-29T01:39:18.214Z,49.60
2023-04-29T01:40:15.949Z,48.37
2023-04-29T01:41:15.730Z,48.72
2023-04-29T01:42:15.469Z,48.42
2023-04-29T01:43:17.132Z,48.83
2023-04-29T01:44:18.011Z,48.19
2023-04-29T01:45:14.935Z,48.35
2023-04-29T01:46:15.553Z,49.11
2023-04-29T01:47:14.740Z,48.79
2023-04-29T01:48:15.829Z,50.29
2023-04-29T01:49:18.478Z,57.37
2023-04-29T01:50:14.949Z,48.48
2023-04-29T01:51:14.913Z,49.40
2023-04-29T01:52:16.220Z,48.27
2023-04-29T01:53:15.703Z,48.32
2023-04-29T01:54:15.589Z,48.97
2023-04-29T01:55:16.021Z,50.65
2023-04-29T01:56:16.320Z,50.58
2023-04-29T01:57:16.161Z,51.70
2023-04-29T01:58:16.096Z,48.10
2023-04-29T01:59:14.923Z,48.02
2023-04-29T02:00:16.400Z,50.32
2023-04-29T02:01:16.695Z,47.91
2023-04-29T02:02:16.530Z,54.74
2023-04-29T02:03:17.729Z,48.16
2023-04-29T02:04:16.303Z,48.90
2023-04-29T02:05:18.040Z,49.66
2023-04-29T02:06:16.066Z,48.41
2023-04-29T02:07:15.493Z,48.62
2023-04-29T02:08:15.892Z,49.68
2023-04-29T02:09:15.897Z,50.18
2023-04-29T02:10:14.937Z,52.15
2023-04-29T02:11:15.942Z,53.86
2023-04-29T02:12:15.970Z,50.85
2023-04-29T02:13:15.981Z,51.57
2023-04-29T02:14:15.975Z,51.01
2023-04-29T02:15:15.187Z,49.12
2023-04-29T02:16:17.191Z,48.58
2023-04-29T02:17:16.374Z,46.52
2023-04-29T02:18:18.551Z,47.57
2023-04-29T02:19:16.834Z,47.91
2023-04-29T02:20:17.512Z,48.49
2023-04-29T02:21:17.067Z,47.94
2023-04-29T02:22:15.657Z,47.99
2023-04-29T02:23:18.225Z,47.99
2023-04-29T02:24:16.602Z,47.94
2023-04-29T02:25:16.623Z,49.10
2023-04-29T02:26:16.603Z,48.75
2023-04-29T02:27:16.553Z,50.41
2023-04-29T02:28:16.826Z,52.41
2023-04-29T02:29:15.732Z,54.22
2023-04-29T02:30:16.689Z,49.89
2023-04-29T02:31:16.781Z,50.46
2023-04-29T02:32:17.417Z,50.21
2023-04-29T02:33:16.043Z,48.34
2023-04-29T02:34:16.764Z,46.68
2023-04-29T02:35:17.142Z,47.30
2023-04-29T02:36:17.124Z,47.56
2023-04-29T02:37:15.692Z,47.86
2023-04-29T02:38:17.117Z,48.39
2023-04-29T02:39:16.735Z,47.84
2023-04-29T02:40:16.901Z,47.85
2023-04-29T02:41:16.559Z,48.60
2023-04-29T02:42:16.917Z,49.31
2023-04-29T02:43:16.271Z,50.23
2023-04-29T02:44:17.068Z,52.54
2023-04-29T02:45:17.525Z,59.25
2023-04-29T02:46:17.738Z,52.13
2023-04-29T02:47:17.806Z,51.61
2023-04-29T02:48:19.679Z,52.17
2023-04-29T02:49:17.958Z,52.53
2023-04-29T02:50:16.179Z,52.39
2023-04-29T02:51:17.450Z,53.39
2023-04-29T02:52:17.128Z,54.94
2023-04-29T02:53:17.522Z,54.54
2023-04-29T02:54:16.602Z,54.89
2023-04-29T02:55:16.614Z,55.82
2023-04-29T02:56:15.605Z,51.16
2023-04-29T02:57:16.596Z,48.55
2023-04-29T02:58:16.601Z,49.36
2023-04-29T02:59:15.590Z,48.80
2023-04-29T03:00:16.644Z,49.53
2023-04-29T03:01:16.677Z,52.99
2023-04-29T03:02:16.687Z,50.70
2023-04-29T03:03:16.789Z,48.74
2023-04-29T03:04:16.835Z,44.95
2023-04-29T03:05:15.657Z,46.78
2023-04-29T03:06:18.908Z,47.64
2023-04-29T03:07:19.068Z,52.35
2023-04-29T03:08:17.026Z,52.52
2023-04-29T03:09:18.086Z,52.90
2023-04-29T03:10:18.006Z,54.07
2023-04-29T03:11:16.383Z,52.60
2023-04-29T03:12:17.278Z,52.95
2023-04-29T03:13:16.620Z,51.37
2023-04-29T03:14:16.616Z,54.65
2023-04-29T03:15:15.598Z,53.47
2023-04-29T03:16:16.652Z,49.32
2023-04-29T03:17:21.255Z,47.61
2023-04-29T03:18:16.675Z,48.28
2023-04-29T03:19:16.582Z,49.68
2023-04-29T03:20:15.573Z,51.39
2023-04-29T03:21:16.544Z,50.94
2023-04-29T03:22:16.568Z,50.13
2023-04-29T03:23:16.539Z,48.30
2023-04-29T03:24:16.532Z,51.55
2023-04-29T03:25:15.532Z,53.03
2023-04-29T03:26:15.533Z,49.86
2023-04-29T03:27:15.512Z,50.05
2023-04-29T03:28:17.082Z,49.26
2023-04-29T03:29:16.472Z,48.28
2023-04-29T03:30:17.357Z,49.27
2023-04-29T03:31:17.684Z,49.72
2023-04-29T03:32:16.895Z,49.75
2023-04-29T03:33:16.713Z,50.79
2023-04-29T03:34:17.640Z,52.39
2023-04-29T03:35:17.281Z,49.27
2023-04-29T03:36:17.543Z,50.25
2023-04-29T03:37:18.641Z,49.50
2023-04-29T03:38:16.288Z,49.53
2023-04-29T03:39:16.647Z,49.76
2023-04-29T03:40:16.786Z,51.33
2023-04-29T03:41:17.213Z,51.14
2023-04-29T03:42:16.398Z,53.53
2023-04-29T03:43:18.463Z,47.31
2023-04-29T03:44:17.383Z,52.88
2023-04-29T03:45:18.124Z,55.77
2023-04-29T03:46:16.861Z,55.91
2023-04-29T03:47:15.804Z,55.82
2023-04-29T03:48:15.818Z,47.14
2023-04-29T03:49:16.865Z,51.49
2023-04-29T03:50:15.812Z,51.39
2023-04-29T03:51:15.783Z,49.28
2023-04-29T03:52:16.821Z,47.30
2023-04-29T03:53:16.781Z,52.59
2023-04-29T03:54:15.759Z,49.90
2023-04-29T03:55:16.791Z,48.32
2023-04-29T03:56:17.334Z,47.77
2023-04-29T03:57:15.764Z,51.34
2023-04-29T03:58:16.739Z,49.18
2023-04-29T03:59:15.743Z,45.67
2023-04-29T04:00:16.738Z,48.93
2023-04-29T04:01:16.729Z,48.98
2023-04-29T04:02:16.747Z,50.08
2023-04-29T04:03:16.892Z,45.76
2023-04-29T04:04:15.987Z,46.78
2023-04-29T04:05:15.996Z,49.08
2023-04-29T04:06:15.689Z,45.16
2023-04-29T04:07:16.702Z,52.31
2023-04-29T04:08:15.674Z,48.24
2023-04-29T04:09:16.667Z,49.70
2023-04-29T04:10:15.673Z,50.08
2023-04-29T04:11:16.651Z,46.22
2023-04-29T04:12:15.647Z,46.43
2023-04-29T04:13:15.624Z,48.31
2023-04-29T04:14:15.630Z,48.22
2023-04-29T04:15:15.636Z,48.98
2023-04-29T04:16:16.739Z,48.93
2023-04-29T04:17:17.228Z,48.27
2023-04-29T04:18:18.225Z,47.65
2023-04-29T04:19:17.312Z,51.04
2023-04-29T04:20:17.463Z,51.08
2023-04-29T04:21:17.562Z,50.74
2023-04-29T04:22:17.416Z,49.36
2023-04-29T04:23:16.535Z,47.26
2023-04-29T04:24:18.587Z,49.20
2023-04-29T04:25:17.375Z,52.55
2023-04-29T04:26:17.387Z,53.94
2023-04-29T04:27:17.203Z,53.73
2023-04-29T04:28:16.799Z,55.04
2023-04-29T04:29:16.788Z,56.61
2023-04-29T04:30:16.797Z,48.64
2023-04-29T04:31:16.874Z,52.14
2023-04-29T04:32:16.766Z,50.38
2023-04-29T04:33:16.775Z,45.37
2023-04-29T04:34:15.741Z,51.52
2023-04-29T04:35:16.728Z,46.44
2023-04-29T04:36:15.712Z,52.59
2023-04-29T04:37:15.722Z,46.90
2023-04-29T04:38:15.715Z,48.37
2023-04-29T04:39:16.737Z,49.64
2023-04-29T04:40:16.714Z,42.16
2023-04-29T04:41:16.860Z,47.98
2023-04-29T04:42:16.689Z,45.96
2023-04-29T04:43:16.685Z,49.48
2023-04-29T04:44:16.671Z,46.03
2023-04-29T04:45:16.663Z,45.84
2023-04-29T04:46:15.775Z,52.22
2023-04-29T04:47:16.629Z,47.66
2023-04-29T04:48:15.658Z,44.85
2023-04-29T04:49:16.630Z,49.32
2023-04-29T04:50:16.641Z,47.62
2023-04-29T04:51:16.607Z,48.47
2023-04-29T04:52:16.608Z,49.07
2023-04-29T04:53:15.601Z,49.56
2023-04-29T04:54:16.583Z,47.66
2023-04-29T04:55:16.614Z,49.85
2023-04-29T04:56:15.890Z,45.80
2023-04-29T04:57:16.595Z,50.77
2023-04-29T04:58:16.591Z,45.49
2023-04-29T04:59:15.571Z,47.57
2023-04-29T05:00:16.569Z,51.42
2023-04-29T05:01:15.632Z,52.54
2023-04-29T05:02:16.602Z,48.58
2023-04-29T05:03:15.768Z,48.70
2023-04-29T05:04:17.357Z,50.23
2023-04-29T05:05:18.355Z,45.75
2023-04-29T05:06:16.976Z,50.49
2023-04-29T05:07:17.133Z,50.09
2023-04-29T05:08:16.136Z,52.87
2023-04-29T05:09:16.916Z,48.63
2023-04-29T05:10:17.135Z,46.78
2023-04-29T05:11:15.835Z,47.23
2023-04-29T05:12:17.024Z,44.82
2023-04-29T05:13:17.407Z,49.09
2023-04-29T05:14:16.357Z,52.52
2023-04-29T05:15:17.602Z,52.68
2023-04-29T05:16:16.971Z,52.79
2023-04-29T05:17:17.219Z,52.59
2023-04-29T05:18:16.897Z,52.95
2023-04-29T05:19:16.705Z,53.29
2023-04-29T05:20:16.542Z,50.98
2023-04-29T05:21:17.784Z,48.36
2023-04-29T05:22:15.455Z,42.60
2023-04-29T05:23:16.463Z,46.40
2023-04-29T05:24:16.488Z,50.26
2023-04-29T05:25:16.469Z,44.11
2023-04-29T05:26:16.479Z,47.64
2023-04-29T05:27:15.481Z,48.92
2023-04-29T05:28:16.505Z,45.14
2023-04-29T05:29:16.480Z,49.25
2023-04-29T05:30:16.529Z,43.98
2023-04-29T05:31:15.540Z,49.40
2023-04-29T05:32:17.402Z,45.79
2023-04-29T05:33:17.124Z,44.46
2023-04-29T05:34:17.175Z,44.83
2023-04-29T05:35:16.589Z,48.61
2023-04-29T05:36:16.611Z,47.06
2023-04-29T05:37:16.598Z,49.93
2023-04-29T05:38:16.662Z,47.37
2023-04-29T05:39:16.641Z,47.53
2023-04-29T05:40:16.687Z,48.37
2023-04-29T05:41:16.195Z,47.44
2023-04-29T05:42:17.192Z,46.09
2023-04-29T05:43:16.668Z,52.01
2023-04-29T05:44:16.657Z,51.36
2023-04-29T05:45:16.676Z,48.27
2023-04-29T05:46:16.754Z,44.36
2023-04-29T05:47:16.624Z,50.64
2023-04-29T05:48:15.633Z,45.45
2023-04-29T05:49:16.622Z,42.10
2023-04-29T05:50:16.638Z,48.02
2023-04-29T05:51:16.634Z,47.36
2023-04-29T05:52:15.638Z,50.38
2023-04-29T05:53:15.637Z,46.07
2023-04-29T05:54:15.587Z,45.18
2023-04-29T05:55:16.586Z,44.72
2023-04-29T05:56:15.579Z,44.13
2023-04-29T05:57:15.583Z,42.30
2023-04-29T05:58:15.801Z,49.71
2023-04-29T05:59:16.554Z,47.89
2023-04-29T06:00:17.473Z,48.83
2023-04-29T06:01:18.775Z,49.00
2023-04-29T06:02:16.849Z,49.28
2023-04-29T06:03:18.289Z,49.53
2023-04-29T06:04:19.978Z,48.94
2023-04-29T06:05:17.495Z,49.49
2023-04-29T06:06:17.089Z,49.33
2023-04-29T06:07:17.311Z,49.38
2023-04-29T06:08:16.954Z,50.73
2023-04-29T06:09:27.144Z,49.13
2023-04-29T06:10:17.086Z,49.47
2023-04-29T06:11:17.502Z,49.68
2023-04-29T06:12:16.034Z,50.97
2023-04-29T06:13:17.731Z,52.20
2023-04-29T06:14:17.065Z,49.20
2023-04-29T06:15:16.964Z,50.41
2023-04-29T06:16:16.845Z,50.95
2023-04-29T06:17:17.337Z,48.98
2023-04-29T06:18:18.694Z,55.83
2023-04-29T06:19:18.847Z,49.06
2023-04-29T06:20:18.093Z,49.14
2023-04-29T06:21:15.876Z,49.24
2023-04-29T06:22:18.263Z,50.27
2023-04-29T06:23:16.540Z,49.41
2023-04-29T06:24:16.654Z,50.37
2023-04-29T06:25:16.780Z,50.92
2023-04-29T06:26:15.856Z,52.30
2023-04-29T06:27:18.176Z,54.45
2023-04-29T06:30:54.082Z,25.00
2023-04-29T06:31:54.936Z,25.00
2023-04-29T06:34:13.356Z,25.00
2023-04-29T06:35:14.101Z,25.00
2023-04-29T06:36:15.320Z,25.00
2023-04-29T06:38:35.336Z,25.00
2023-04-29T06:39:33.852Z,25.00
2023-04-29T06:40:34.722Z,25.00
2023-04-29T06:41:33.954Z,25.00
2023-04-29T06:42:33.865Z,25.00
2023-04-29T06:43:32.691Z,25.00
2023-04-29T06:44:33.671Z,25.00
2023-04-29T06:45:33.752Z,25.00
2023-04-29T06:46:33.739Z,25.00
2023-04-29T06:47:33.812Z,31.53
2023-04-29T06:48:33.504Z,29.30
2023-04-29T06:49:33.709Z,28.02
2023-04-29T06:50:33.301Z,27.91
2023-04-29T06:51:33.264Z,27.24
2023-04-29T06:52:33.250Z,25.71
2023-04-29T06:53:33.275Z,25.20
2023-04-29T06:54:33.259Z,31.29
2023-04-29T06:55:32.312Z,28.76
2023-04-29T06:56:33.299Z,29.35
2023-04-29T06:57:32.283Z,27.04
2023-04-29T06:58:32.300Z,27.40
2023-04-29T06:59:33.302Z,31.79
2023-04-29T07:00:33.329Z,28.06
2023-04-29T07:01:32.421Z,28.85
2023-04-29T07:02:33.402Z,27.09
2023-04-29T07:03:33.407Z,33.85
2023-04-29T07:04:33.395Z,32.31
2023-04-29T07:05:33.376Z,26.96
2023-04-29T07:06:33.654Z,29.36
2023-04-29T07:07:33.420Z,26.59
2023-04-29T07:08:33.454Z,29.37
2023-04-29T07:09:33.441Z,32.09
2023-04-29T07:10:33.446Z,27.76
2023-04-29T07:11:32.483Z,28.41
2023-04-29T07:12:33.489Z,31.23
2023-04-29T07:13:32.464Z,26.41
2023-04-29T07:14:32.500Z,33.09
2023-04-29T07:15:33.484Z,26.91
2023-04-29T07:16:32.552Z,31.25
2023-04-29T07:17:32.524Z,31.74
2023-04-29T07:18:34.025Z,29.04
2023-04-29T07:19:33.530Z,33.44
2023-04-29T07:20:33.786Z,35.36
2023-04-29T07:21:33.844Z,29.84
2023-04-29T07:22:33.801Z,30.03
2023-04-29T07:23:33.747Z,29.02
2023-04-29T07:24:32.813Z,32.34
2023-04-29T07:25:33.933Z,29.61
2023-04-29T07:26:33.549Z,33.02
2023-04-29T07:27:33.541Z,31.16
2023-04-29T07:28:32.519Z,29.18
2023-04-29T07:29:33.517Z,31.10
2023-04-29T07:30:34.100Z,31.95
2023-04-29T07:31:32.889Z,26.37
2023-04-29T07:32:33.710Z,27.39
2023-04-29T07:33:32.898Z,33.99
2023-04-29T07:34:33.610Z,31.87
2023-04-29T07:35:33.952Z,33.57
2023-04-29T07:36:32.986Z,27.57
2023-04-29T07:37:34.270Z,28.99
2023-04-29T07:38:33.682Z,30.88
2023-04-29T07:39:33.770Z,29.29
2023-04-29T07:40:32.696Z,27.18
2023-04-29T07:41:34.070Z,28.61
2023-04-29T07:42:33.743Z,27.70
2023-04-29T07:43:33.559Z,28.29
2023-04-29T07:44:33.904Z,32.11
2023-04-29T07:45:33.795Z,28.98
2023-04-29T07:46:33.873Z,28.48
2023-04-29T07:47:33.932Z,33.40
2023-04-29T07:48:33.609Z,33.04
2023-04-29T07:49:33.670Z,31.77
2023-04-29T07:50:33.628Z,31.41
2023-04-29T07:51:32.638Z,27.65
2023-04-29T07:52:33.804Z,29.17
2023-04-29T07:53:33.853Z,29.50
2023-04-29T07:54:33.678Z,28.17
2023-04-29T07:55:33.699Z,28.67
2023-04-29T07:56:33.719Z,28.47
2023-04-29T07:57:33.753Z,29.66
2023-04-29T07:58:32.731Z,29.47
2023-04-29T07:59:33.837Z,29.61
2023-04-29T08:00:33.333Z,26.95
2023-04-29T08:01:33.466Z,28.44
2023-04-29T08:02:34.413Z,29.01
2023-04-29T08:03:33.243Z,31.96
2023-04-29T08:04:34.362Z,30.59
2023-04-29T08:05:34.521Z,31.18
2023-04-29T08:06:33.511Z,30.77
2023-04-29T08:07:34.402Z,31.21
2023-04-29T08:08:34.343Z,33.87
2023-04-29T08:09:34.579Z,28.59
2023-04-29T08:10:33.444Z,31.79
2023-04-29T08:11:34.471Z,31.37
2023-04-29T08:12:33.472Z,29.53
2023-04-29T08:13:33.876Z,31.76
2023-04-29T08:14:33.680Z,33.77
2023-04-29T08:15:34.667Z,34.31
2023-04-29T08:16:34.901Z,33.60
2023-04-29T08:17:35.298Z,35.28
2023-04-29T08:18:35.007Z,32.02
2023-04-29T08:19:35.094Z,33.16
2023-04-29T08:20:35.063Z,31.39
2023-04-29T08:21:35.423Z,32.14
2023-04-29T08:22:35.302Z,30.53
2023-04-29T08:23:35.430Z,32.21
2023-04-29T08:24:35.510Z,32.40
2023-04-29T08:25:35.437Z,32.96
2023-04-29T08:26:35.414Z,30.95
2023-04-29T08:27:35.819Z,35.15
2023-04-29T08:28:36.494Z,33.36
2023-04-29T08:29:35.676Z,35.05
2023-04-29T08:30:35.704Z,35.18
2023-04-29T08:31:34.701Z,35.94
2023-04-29T08:32:35.793Z,35.97
2023-04-29T08:33:35.360Z,36.97
2023-04-29T08:34:34.359Z,38.08
2023-04-29T08:35:35.353Z,38.03
2023-04-29T08:36:35.927Z,37.50
2023-04-29T08:37:34.886Z,39.17
2023-04-29T08:38:35.706Z,40.77
2023-04-29T08:39:35.747Z,39.81
2023-04-29T08:40:36.089Z,41.43
2023-04-29T08:41:35.328Z,39.73
2023-04-29T08:42:35.309Z,37.08
2023-04-29T08:43:35.309Z,40.24
2023-04-29T08:44:34.294Z,40.17
2023-04-29T08:45:34.312Z,42.02
2023-04-29T08:46:35.295Z,39.99
2023-04-29T08:47:35.583Z,40.41
2023-04-29T08:48:35.027Z,40.41
2023-04-29T08:49:35.608Z,39.13
2023-04-29T08:50:35.882Z,37.64
2023-04-29T08:51:35.654Z,39.42
2023-04-29T08:52:34.523Z,40.54
2023-04-29T08:53:35.504Z,39.98
2023-04-29T08:54:35.484Z,38.48
2023-04-29T08:55:35.494Z,37.35
2023-04-29T08:56:34.473Z,39.50
2023-04-29T08:57:34.476Z,40.41
2023-04-29T08:58:35.450Z,41.72
2023-04-29T08:59:35.473Z,34.62
2023-04-29T09:00:34.955Z,35.70
2023-04-29T09:01:35.814Z,36.27
2023-04-29T09:02:35.593Z,34.67
2023-04-29T09:03:35.835Z,34.26
2023-04-29T09:04:35.461Z,35.26
2023-04-29T09:05:35.994Z,32.20
2023-04-29T09:06:35.433Z,36.12
2023-04-29T09:07:34.413Z,30.05
2023-04-29T09:08:35.376Z,29.58
2023-04-29T09:09:35.399Z,31.41
2023-04-29T09:10:34.458Z,28.97
2023-04-29T09:11:35.487Z,30.53
2023-04-29T09:12:35.585Z,30.47
2023-04-29T09:13:35.615Z,34.74
2023-04-29T09:14:34.672Z,32.12
2023-04-29T09:15:35.100Z,34.93
2023-04-29T09:16:34.844Z,36.45
2023-04-29T09:17:35.898Z,38.42
2023-04-29T09:18:35.946Z,38.24
2023-04-29T09:19:36.649Z,37.04
2023-04-29T09:20:35.350Z,37.66
2023-04-29T09:21:35.718Z,39.27
2023-04-29T09:22:36.464Z,37.02
2023-04-29T09:23:36.562Z,33.64
2023-04-29T09:24:36.574Z,35.89
2023-04-29T09:25:36.906Z,35.88
2023-04-29T09:26:35.519Z,26.30
2023-04-29T09:27:36.692Z,30.20
2023-04-29T09:28:36.720Z,30.59
2023-04-29T09:29:37.105Z,31.95
2023-04-29T09:30:35.750Z,26.77
2023-04-29T09:31:35.675Z,25.25
2023-04-29T09:32:39.064Z,30.13
2023-04-29T09:33:36.046Z,31.54
2023-04-29T09:34:36.656Z,31.42
2023-04-29T09:35:36.681Z,34.83
2023-04-29T09:36:36.816Z,32.61
2023-04-29T09:37:36.131Z,34.34
2023-04-29T09:38:37.124Z,35.46
2023-04-29T09:39:35.966Z,35.63
2023-04-29T09:40:50.263Z,37.96
2023-04-29T09:41:36.815Z,38.46
2023-04-29T09:42:35.965Z,39.47
2023-04-29T09:43:37.052Z,39.19
2023-04-29T09:44:35.796Z,39.37
2023-04-29T09:45:36.981Z,39.92
2023-04-29T09:46:35.943Z,39.68
2023-04-29T09:47:37.043Z,40.61
2023-04-29T09:48:36.679Z,38.48
2023-04-29T09:49:36.795Z,40.93
2023-04-29T09:50:36.738Z,36.76
2023-04-29T09:51:36.562Z,35.63
2023-04-29T09:52:36.549Z,35.53
2023-04-29T09:53:36.138Z,35.32
2023-04-29T09:54:35.744Z,29.21
2023-04-29T09:55:36.668Z,34.10
2023-04-29T09:56:35.703Z,31.99
2023-04-29T09:57:36.843Z,38.64
2023-04-29T09:58:35.629Z,32.52
2023-04-29T09:59:35.891Z,33.13
2023-04-29T10:00:36.760Z,34.67
2023-04-29T10:01:36.767Z,37.24
2023-04-29T10:02:35.773Z,33.34
2023-04-29T10:03:37.095Z,33.66
2023-04-29T10:04:38.241Z,38.50
2023-04-29T10:05:36.640Z,38.81
2023-04-29T10:07:55.282Z,25.00
2023-04-29T10:08:56.177Z,25.00
2023-04-29T10:09:54.692Z,25.00
2023-04-29T10:10:55.631Z,25.00
2023-04-29T10:11:55.662Z,25.00
2023-04-29T10:12:55.644Z,26.73
2023-04-29T10:13:54.640Z,29.03
2023-04-29T10:14:54.957Z,28.20
2023-04-29T10:15:55.739Z,25.00
2023-04-29T10:16:55.614Z,26.02
2023-04-29T10:17:54.688Z,25.00
2023-04-29T10:18:55.642Z,28.18
2023-04-29T10:19:54.592Z,26.55
2023-04-29T10:20:56.109Z,27.16
2023-04-29T10:21:56.000Z,27.35
2023-04-29T10:22:55.886Z,25.00
2023-04-29T10:23:55.930Z,27.94
2023-04-29T10:24:54.841Z,28.07
2023-04-29T10:25:55.711Z,27.76
2023-04-29T10:26:55.469Z,29.34
2023-04-29T10:27:55.723Z,28.62
2023-04-29T10:28:55.571Z,26.29
2023-04-29T10:29:55.607Z,27.23
2023-04-29T10:30:54.761Z,29.94
2023-04-29T10:31:54.798Z,30.21
2023-04-29T10:32:56.607Z,29.69
2023-04-29T10:33:56.034Z,29.77
2023-04-29T10:34:56.173Z,30.58
2023-04-29T10:35:56.030Z,30.62
2023-04-29T10:36:55.098Z,31.34
2023-04-29T10:37:55.117Z,29.51
2023-04-29T10:38:56.588Z,29.01
2023-04-29T10:39:56.537Z,30.01
2023-04-29T10:40:56.424Z,32.60
2023-04-29T10:41:56.159Z,29.35
2023-04-29T10:42:56.045Z,27.24
2023-04-29T10:43:56.071Z,30.61
2023-04-29T10:44:56.078Z,25.00
2023-04-29T10:45:56.118Z,29.21
2023-04-29T10:46:55.187Z,32.43
2023-04-29T10:47:56.943Z,33.11
2023-04-29T10:48:56.709Z,33.26
2023-04-29T10:49:56.277Z,33.08
2023-04-29T10:50:56.009Z,35.01
2023-04-29T10:51:56.769Z,39.01
2023-04-29T10:52:55.657Z,38.22
2023-04-29T10:53:56.406Z,34.75
2023-04-29T10:54:56.441Z,36.64
2023-04-29T10:55:56.856Z,34.53
2023-04-29T10:56:56.808Z,33.14
2023-04-29T10:57:56.843Z,32.82
2023-04-29T10:58:57.095Z,34.16
2023-04-29T10:59:56.603Z,35.04
2023-04-29T11:00:56.702Z,33.90
2023-04-29T11:01:56.700Z,31.51
2023-04-29T11:02:56.852Z,36.09
2023-04-29T11:03:56.860Z,39.88
2023-04-29T11:04:57.082Z,38.12
2023-04-29T11:05:57.169Z,37.79
2023-04-29T11:06:57.124Z,34.24
2023-04-29T11:07:56.271Z,33.10
2023-04-29T11:08:57.467Z,33.35
2023-04-29T11:09:57.488Z,35.00
2023-04-29T11:10:56.413Z,30.33
2023-04-29T11:11:57.058Z,28.46
2023-04-29T11:12:56.056Z,30.99
2023-04-29T11:13:56.109Z,30.28
2023-04-29T11:14:57.173Z,28.46
2023-04-29T11:15:57.532Z,32.37
2023-04-29T11:16:57.646Z,32.85
2023-04-29T11:17:57.936Z,31.05
2023-04-29T11:18:57.613Z,34.74
2023-04-29T11:19:57.624Z,33.52
2023-04-29T11:20:56.760Z,33.94
2023-04-29T11:21:57.673Z,33.13
2023-04-29T11:22:57.838Z,36.27
2023-04-29T11:23:56.722Z,35.57
2023-04-29T11:24:58.046Z,34.87
2023-04-29T11:25:56.555Z,35.42
2023-04-29T11:26:57.584Z,31.54
2023-04-29T11:27:56.629Z,35.43
2023-04-29T11:28:57.646Z,37.78
2023-04-29T11:29:56.719Z,34.25
2023-04-29T11:30:57.771Z,34.62
2023-04-29T11:31:56.831Z,32.48
2023-04-29T11:32:57.904Z,33.58
2023-04-29T11:33:56.838Z,31.11
2023-04-29T11:34:56.889Z,30.59
2023-04-29T11:35:58.031Z,29.45
2023-04-29T11:36:56.952Z,29.97
2023-04-29T11:37:57.986Z,29.17
2023-04-29T11:38:57.046Z,32.14
2023-04-29T11:39:58.089Z,34.45
2023-04-29T11:40:58.110Z,32.56
2023-04-29T11:41:57.161Z,30.18
2023-04-29T11:42:58.209Z,29.66
2023-04-29T11:43:57.227Z,30.33
2023-04-29T11:44:57.248Z,32.64
2023-04-29T11:45:58.315Z,36.13
2023-04-29T11:46:58.343Z,31.87
2023-04-29T11:47:58.743Z,33.12
2023-04-29T11:48:57.417Z,35.53
2023-04-29T11:49:58.442Z,32.23
2023-04-29T11:50:58.562Z,37.10
2023-04-29T11:51:58.854Z,33.07
2023-04-29T11:52:57.840Z,32.26
2023-04-29T11:53:57.918Z,32.78
2023-04-29T11:54:59.086Z,31.37
2023-04-29T11:55:59.118Z,31.58
2023-04-29T11:56:58.853Z,33.12
2023-04-29T11:57:59.103Z,34.45
2023-04-29T11:58:59.202Z,33.73
2023-04-29T11:59:58.926Z,33.58
2023-04-29T12:00:58.824Z,30.16
2023-04-29T12:01:57.840Z,38.21
2023-04-29T12:02:59.621Z,43.96
2023-04-29T12:03:58.320Z,41.48
2023-04-29T12:04:59.578Z,40.91
2023-04-29T12:05:58.319Z,38.61
2023-04-29T12:06:59.288Z,38.29
2023-04-29T12:07:58.154Z,39.53
2023-04-29T12:08:59.269Z,37.54
2023-04-29T12:09:59.225Z,36.87
2023-04-29T12:10:59.451Z,41.26
2023-04-29T12:11:59.388Z,42.86
2023-04-29T12:12:59.444Z,43.84
2023-04-29T12:13:59.752Z,45.15
2023-04-29T12:14:59.190Z,41.49
2023-04-29T12:15:59.646Z,43.26
2023-04-29T12:16:58.297Z,42.75
2023-04-29T12:17:59.403Z,40.72
2023-04-29T12:18:59.387Z,37.66
2023-04-29T12:19:59.377Z,39.50
2023-04-29T12:20:59.457Z,36.46
2023-04-29T12:21:59.474Z,40.92
2023-04-29T12:22:59.494Z,36.78
2023-04-29T12:23:59.614Z,34.62
2023-04-29T12:24:59.573Z,35.70
2023-04-29T12:26:00.095Z,31.97
2023-04-29T12:26:59.926Z,38.84
2023-04-29T12:27:59.710Z,35.56
2023-04-29T12:28:58.727Z,34.73
2023-04-29T12:29:58.743Z,37.32
2023-04-29T12:30:58.817Z,35.58
2023-04-29T12:32:01.332Z,39.63
2023-04-29T12:32:59.971Z,39.31
2023-04-29T12:34:00.427Z,39.41
2023-04-29T12:35:00.473Z,38.16
2023-04-29T12:36:00.164Z,36.64
2023-04-29T12:37:00.164Z,36.21
2023-04-29T12:38:00.226Z,38.19
2023-04-29T12:39:00.257Z,34.18
2023-04-29T12:39:59.786Z,35.41
2023-04-29T12:40:59.757Z,38.26
2023-04-29T12:42:00.448Z,37.93
2023-04-29T12:43:00.139Z,35.91
2023-04-29T12:43:58.740Z,37.83
2023-04-29T12:44:58.786Z,36.51
2023-04-29T12:45:59.725Z,39.62
2023-04-29T12:46:58.797Z,39.90
2023-04-29T12:47:59.834Z,41.69
2023-04-29T12:48:59.741Z,37.16
2023-04-29T12:49:58.767Z,39.64
2023-04-29T12:50:59.859Z,38.49
2023-04-29T12:51:59.839Z,36.99
2023-04-29T12:52:58.873Z,37.43
2023-04-29T12:53:59.898Z,35.52
2023-04-29T12:54:59.562Z,40.95
2023-04-29T12:56:00.849Z,38.15
2023-04-29T12:57:00.215Z,35.68
2023-04-29T12:58:00.937Z,35.83
2023-04-29T12:58:59.180Z,35.51